virtualACA

Welcome To Vancouver International Airport CYVR

Hub Roster

Pilot Domicile Rank
Brian Kozushka - ACA1102CanadaChief Pilot
Thomas Geoghegan - ACA1617United StatesChief Pilot
Jean-Michel Lazare - ACA2310FranceChief Pilot
Michael Schwartz - ACA2511United StatesFirst Officer
Jose Restrepo - ACA3112ColombiaFirst Officer
Chris Woolbright - ACA3136United StatesSecond Officer
Lucas De Souza Tavares - ACA3143BrazilNew Hire

Current Vatsim Weather


CYVR 251900Z 30012KT 30SM FEW027TCU SCT056 BKN150 BKN250 05/01 A2973 RMK TCU2SC1AC3CI1 CI TR SLP070
Vancouver International Airport